createdAt,value
2023-05-18T00:00:19.516Z,0.70
2023-05-18T00:05:11.804Z,0.98
2023-05-18T00:10:03.648Z,0.95
2023-05-18T00:14:55.327Z,0.80
2023-05-18T00:19:46.996Z,0.90
2023-05-18T00:24:38.685Z,0.80
2023-05-18T00:29:30.319Z,0.80
2023-05-18T00:34:21.944Z,1.23
2023-05-18T00:39:13.579Z,0.88
2023-05-18T00:44:05.336Z,0.98
2023-05-18T00:48:57.477Z,0.80
2023-05-18T00:53:51.099Z,0.90
2023-05-18T00:58:42.970Z,0.80
2023-05-18T01:03:34.614Z,0.60
2023-05-18T01:08:27.439Z,1.00
2023-05-18T01:13:31.175Z,0.52
2023-05-18T01:18:30.419Z,1.05
2023-05-18T01:23:45.291Z,1.58
2023-05-18T01:28:37.162Z,1.15
2023-05-18T01:33:28.851Z,1.20
2023-05-18T01:38:23.804Z,1.27
2023-05-18T01:43:20.434Z,0.98
2023-05-18T01:48:18.721Z,1.15
2023-05-18T01:53:20.655Z,1.48
2023-05-18T01:58:13.457Z,1.50
2023-05-18T02:03:05.612Z,1.50
2023-05-18T02:07:58.207Z,1.67
2023-05-18T02:12:52.755Z,1.95
2023-05-18T02:17:44.799Z,1.90
2023-05-18T02:22:37.133Z,2.08
2023-05-18T02:27:28.884Z,2.20
2023-05-18T02:32:20.742Z,2.30
2023-05-18T02:37:13.449Z,1.88
2023-05-18T02:42:05.468Z,1.52
2023-05-18T02:46:57.271Z,2.17
2023-05-18T02:51:48.913Z,1.75
2023-05-18T02:56:41.847Z,1.63
2023-05-18T03:01:36.962Z,1.27
2023-05-18T03:06:30.464Z,1.45
2023-05-18T03:11:23.209Z,1.35
2023-05-18T03:16:15.304Z,1.13
2023-05-18T03:21:08.105Z,1.00
2023-05-18T03:26:02.655Z,1.20
2023-05-18T03:30:54.844Z,1.35
2023-05-18T03:35:48.465Z,1.50
2023-05-18T03:40:40.451Z,1.55
2023-05-18T03:45:32.380Z,1.40
2023-05-18T03:50:24.294Z,1.88
2023-05-18T03:55:17.310Z,2.05
2023-05-18T04:00:12.501Z,2.38
2023-05-18T04:05:05.381Z,2.20
2023-05-18T04:09:57.170Z,1.83
2023-05-18T04:14:49.721Z,2.28
2023-05-18T04:19:42.150Z,2.15
2023-05-18T04:24:37.354Z,2.22
2023-05-18T04:29:29.839Z,1.98
2023-05-18T04:34:21.442Z,2.10
2023-05-18T04:39:13.296Z,1.85
2023-05-18T04:44:04.995Z,1.50
2023-05-18T04:48:58.126Z,1.65
2023-05-18T04:53:50.297Z,1.90
2023-05-18T04:58:46.121Z,2.20
2023-05-18T05:03:37.820Z,1.45
2023-05-18T05:08:29.526Z,1.65
2023-05-18T05:13:21.810Z,1.48
2023-05-18T05:18:13.489Z,1.75
2023-05-18T05:23:05.152Z,1.65
2023-05-18T05:27:57.991Z,1.38
2023-05-18T05:32:49.752Z,1.63
2023-05-18T05:37:41.851Z,1.63
2023-05-18T05:42:33.900Z,1.60
2023-05-18T05:47:25.725Z,1.65
2023-05-18T05:52:17.536Z,1.30
2023-05-18T05:57:09.143Z,1.63
2023-05-18T06:02:00.844Z,1.30
2023-05-18T06:06:52.521Z,1.40
2023-05-18T06:11:44.204Z,1.05
2023-05-18T06:16:35.941Z,1.30
2023-05-18T06:21:27.615Z,1.60
2023-05-18T06:26:19.301Z,1.48
2023-05-18T06:31:11.180Z,1.77
2023-05-18T06:36:03.263Z,2.10
2023-05-18T06:40:54.871Z,2.20
2023-05-18T06:45:47.008Z,1.90
2023-05-18T06:50:38.716Z,1.83
2023-05-18T06:55:30.688Z,1.25
2023-05-18T07:00:22.525Z,1.52
2023-05-18T07:05:15.073Z,1.33
2023-05-18T07:10:07.329Z,1.58
2023-05-18T07:14:59.013Z,1.50
2023-05-18T07:19:50.808Z,1.52
2023-05-18T07:24:43.288Z,2.22
2023-05-18T07:29:35.025Z,2.03
2023-05-18T07:34:27.332Z,1.90
2023-05-18T07:39:19.843Z,2.10
2023-05-18T07:44:12.221Z,1.98
2023-05-18T07:49:03.925Z,2.15
2023-05-18T07:53:55.634Z,1.73
2023-05-18T07:58:47.336Z,1.92
2023-05-18T08:03:39.181Z,1.73
2023-05-18T08:08:30.952Z,2.30
2023-05-18T08:13:22.623Z,1.85
2023-05-18T08:18:14.458Z,1.65
2023-05-18T08:23:06.141Z,1.80
2023-05-18T08:27:57.863Z,2.20
2023-05-18T08:32:49.596Z,1.85
2023-05-18T08:37:41.726Z,1.80
2023-05-18T08:42:49.328Z,2.17
2023-05-18T08:47:41.994Z,1.58
2023-05-18T08:52:37.190Z,1.92
2023-05-18T08:57:31.153Z,1.98
2023-05-18T09:02:23.291Z,1.98
2023-05-18T09:07:16.125Z,1.45
2023-05-18T09:12:08.553Z,1.55
2023-05-18T09:17:00.844Z,1.60
2023-05-18T09:21:52.409Z,1.58
2023-05-18T09:26:44.134Z,1.70
2023-05-18T09:31:37.225Z,1.60
2023-05-18T09:36:32.434Z,1.77
2023-05-18T09:41:26.595Z,2.00
2023-05-18T09:46:20.777Z,1.85
2023-05-18T09:51:16.576Z,2.13
2023-05-18T09:56:12.029Z,1.67
2023-05-18T10:01:03.908Z,2.08
2023-05-18T10:05:55.650Z,1.90
2023-05-18T10:10:49.249Z,1.98
2023-05-18T10:15:49.875Z,1.63
2023-05-18T10:20:43.100Z,1.50
2023-05-18T10:25:36.369Z,1.88
2023-05-18T10:30:28.522Z,2.13
2023-05-18T10:35:21.885Z,2.00
2023-05-18T10:40:15.464Z,1.63
2023-05-18T10:45:09.462Z,1.50
2023-05-18T10:50:03.245Z,1.95
2023-05-18T10:54:55.180Z,2.58
2023-05-18T10:59:48.607Z,1.65
2023-05-18T11:04:40.967Z,2.33
2023-05-18T11:09:33.677Z,1.95
2023-05-18T11:14:32.761Z,1.55
2023-05-18T11:19:27.753Z,2.17
2023-05-18T11:24:31.086Z,1.83
2023-05-18T11:29:46.771Z,2.30
2023-05-18T11:34:45.689Z,1.75
2023-05-18T11:39:44.799Z,1.88
2023-05-18T11:44:53.078Z,1.93
2023-05-18T11:49:46.833Z,2.20
2023-05-18T11:54:54.991Z,1.92
2023-05-18T11:59:48.570Z,1.92
2023-05-18T12:04:46.884Z,2.25
2023-05-18T12:09:43.109Z,1.77
2023-05-18T12:14:35.931Z,1.43
2023-05-18T12:19:27.742Z,1.58
2023-05-18T12:24:20.985Z,1.77
2023-05-18T12:29:19.801Z,2.15
2023-05-18T12:34:12.197Z,1.60
2023-05-18T12:39:04.271Z,1.25
2023-05-18T12:43:55.986Z,1.98
2023-05-18T12:48:47.840Z,2.10
2023-05-18T12:53:43.245Z,2.55
2023-05-18T12:58:35.030Z,1.95
2023-05-18T13:03:33.737Z,2.05
2023-05-18T13:08:25.673Z,1.73
2023-05-18T13:13:17.375Z,1.77
2023-05-18T13:18:11.245Z,2.08
2023-05-18T13:23:05.697Z,2.05
2023-05-18T13:27:57.678Z,1.90
2023-05-18T13:32:51.120Z,2.10
2023-05-18T13:37:42.861Z,1.75
2023-05-18T13:42:34.772Z,1.67
2023-05-18T13:47:26.482Z,2.28
2023-05-18T13:52:18.217Z,1.35
2023-05-18T13:57:09.989Z,1.67
2023-05-18T14:02:02.270Z,1.73
2023-05-18T14:06:55.840Z,1.63
2023-05-18T14:11:47.501Z,1.65
2023-05-18T14:16:39.213Z,2.40
2023-05-18T14:21:31.416Z,2.28
2023-05-18T14:26:23.403Z,2.10
2023-05-18T14:31:15.133Z,2.00
2023-05-18T14:36:06.836Z,2.20
2023-05-18T14:40:58.453Z,2.58
2023-05-18T14:46:00.222Z,2.28
2023-05-18T14:50:59.517Z,2.28
2023-05-18T14:55:51.536Z,1.65
2023-05-18T15:00:43.448Z,1.77
2023-05-18T15:05:35.340Z,1.70
2023-05-18T15:10:27.411Z,1.90
2023-05-18T15:15:19.073Z,1.67
2023-05-18T15:20:11.250Z,2.15
2023-05-18T15:25:05.392Z,2.47
2023-05-18T15:29:57.227Z,2.00
2023-05-18T15:34:48.867Z,1.80
2023-05-18T15:39:40.572Z,1.98
2023-05-18T15:44:32.217Z,2.28
2023-05-18T15:49:25.508Z,2.20
2023-05-18T15:54:18.002Z,1.95
2023-05-18T15:59:09.907Z,2.50
2023-05-18T16:04:01.582Z,2.00
2023-05-18T16:08:53.236Z,3.13
2023-05-18T16:13:44.804Z,2.92
2023-05-18T16:18:36.901Z,2.70
2023-05-18T16:23:28.558Z,2.63
2023-05-18T16:28:20.135Z,2.63
2023-05-18T16:33:11.985Z,4.07
2023-05-18T16:38:03.692Z,4.32
2023-05-18T16:42:55.431Z,3.40
2023-05-18T16:47:47.084Z,2.50
2023-05-18T16:52:38.773Z,2.25
2023-05-18T16:57:31.059Z,2.05
2023-05-18T17:02:24.473Z,1.75
2023-05-18T17:07:16.340Z,1.98
2023-05-18T17:12:11.736Z,1.70
2023-05-18T17:17:04.244Z,1.65
2023-05-18T17:21:56.493Z,2.63
2023-05-18T17:26:48.146Z,1.60
2023-05-18T17:31:39.799Z,1.58
2023-05-18T17:36:31.343Z,1.48
2023-05-18T17:41:23.047Z,1.65
2023-05-18T17:46:14.741Z,1.45
2023-05-18T17:51:07.223Z,1.63
2023-05-18T17:55:58.869Z,2.10
2023-05-18T18:00:50.523Z,1.27
2023-05-18T18:05:42.182Z,0.93
2023-05-18T18:10:34.743Z,2.40
2023-05-18T18:15:27.558Z,1.90
2023-05-18T18:20:19.318Z,1.73
2023-05-18T18:25:11.169Z,2.13
2023-05-18T18:30:02.949Z,1.42
2023-05-18T18:34:54.627Z,1.55
2023-05-18T18:44:28.752Z,1.40
2023-05-18T18:49:20.610Z,1.55
2023-05-18T18:54:55.198Z,1.10
2023-05-18T18:59:46.806Z,1.38
2023-05-18T19:04:38.728Z,1.10
2023-05-18T19:09:35.598Z,1.10
2023-05-18T19:14:27.433Z,1.57
2023-05-18T19:19:19.210Z,1.40
2023-05-18T19:24:11.175Z,1.38
2023-05-18T19:29:02.816Z,1.67
2023-05-18T19:33:54.481Z,2.33
2023-05-18T19:38:51.149Z,1.52
2023-05-18T19:43:42.798Z,1.48
2023-05-18T19:48:34.472Z,1.15
2023-05-18T19:53:26.121Z,1.52
2023-05-18T19:58:18.189Z,2.08
2023-05-18T20:03:10.582Z,1.40
2023-05-18T20:08:03.027Z,1.83
2023-05-18T20:12:54.605Z,1.60
2023-05-18T20:17:46.284Z,1.23
2023-05-18T20:22:38.940Z,1.63
2023-05-18T20:27:30.763Z,1.20
2023-05-18T20:32:22.392Z,1.55
2023-05-18T20:37:14.354Z,1.25
2023-05-18T20:42:06.814Z,1.10
2023-05-18T20:47:01.079Z,1.70
2023-05-18T20:51:52.979Z,1.40
2023-05-18T20:56:44.776Z,1.30
2023-05-18T21:01:39.408Z,1.30
2023-05-18T21:06:32.574Z,1.38
2023-05-18T21:11:24.542Z,1.90
2023-05-18T21:16:16.456Z,1.70
2023-05-18T21:21:10.543Z,2.53
2023-05-18T21:26:02.334Z,2.45
2023-05-18T21:30:56.739Z,3.08
2023-05-18T21:35:48.417Z,2.67
2023-05-18T21:40:43.491Z,1.75
2023-05-18T21:45:35.807Z,1.40
2023-05-18T21:50:27.759Z,2.03
2023-05-18T21:55:19.443Z,1.35
2023-05-18T22:00:13.952Z,2.22
2023-05-18T22:05:06.033Z,2.22
2023-05-18T22:09:57.704Z,2.50
2023-05-18T22:14:49.357Z,2.28
2023-05-18T22:19:42.199Z,2.47
2023-05-18T22:24:33.904Z,3.20
2023-05-18T22:29:25.786Z,2.33
2023-05-18T22:34:17.410Z,2.70
2023-05-18T22:39:09.116Z,2.95
2023-05-18T22:44:00.904Z,2.33
2023-05-18T22:48:53.587Z,1.98
2023-05-18T22:53:45.441Z,1.77
2023-05-18T22:58:37.107Z,2.03
2023-05-18T23:03:28.715Z,2.35
2023-05-18T23:08:20.530Z,2.13
2023-05-18T23:13:16.236Z,2.03
2023-05-18T23:18:09.333Z,3.13
2023-05-18T23:23:01.578Z,1.90
2023-05-18T23:27:53.366Z,2.38
2023-05-18T23:32:46.848Z,1.92
2023-05-18T23:37:41.427Z,1.80
2023-05-18T23:42:33.268Z,2.25
2023-05-18T23:47:25.255Z,2.50
2023-05-18T23:52:22.941Z,2.60
2023-05-18T23:57:14.811Z,1.88
